sensor_id;sensor_type;location;lat;lon;timestamp;P1;durP1;ratioP1;P2;durP2;ratioP2
29570;SDS011;16814;52.118;11.436;2024-02-23T00:00:37;3.83;;;1.10;;
29570;SDS011;16814;52.118;11.436;2024-02-23T00:03:03;1.10;;;0.82;;
29570;SDS011;16814;52.118;11.436;2024-02-23T00:05:29;1.15;;;0.90;;
29570;SDS011;16814;52.118;11.436;2024-02-23T00:07:54;1.97;;;0.70;;
29570;SDS011;16814;52.118;11.436;2024-02-23T00:10:20;2.78;;;1.08;;
29570;SDS011;16814;52.118;11.436;2024-02-23T00:12:45;1.00;;;0.60;;
29570;SDS011;16814;52.118;11.436;2024-02-23T00:15:12;1.63;;;0.77;;
29570;SDS011;16814;52.118;11.436;2024-02-23T00:17:38;1.80;;;0.70;;
29570;SDS011;16814;52.118;11.436;2024-02-23T00:20:04;2.87;;;0.70;;
29570;SDS011;16814;52.118;11.436;2024-02-23T00:22:35;3.25;;;1.10;;
29570;SDS011;16814;52.118;11.436;2024-02-23T00:25:01;4.20;;;0.65;;
29570;SDS011;16814;52.118;11.436;2024-02-23T00:27:26;2.92;;;0.60;;
29570;SDS011;16814;52.118;11.436;2024-02-23T00:29:52;1.40;;;0.50;;
29570;SDS011;16814;52.118;11.436;2024-02-23T00:32:17;3.57;;;0.50;;
29570;SDS011;16814;52.118;11.436;2024-02-23T00:34:43;2.42;;;0.52;;
29570;SDS011;16814;52.118;11.436;2024-02-23T00:37:08;3.17;;;0.50;;
29570;SDS011;16814;52.118;11.436;2024-02-23T00:39:34;1.67;;;0.57;;
29570;SDS011;16814;52.118;11.436;2024-02-23T00:42:01;3.30;;;0.50;;
29570;SDS011;16814;52.118;11.436;2024-02-23T00:44:27;3.67;;;0.60;;
29570;SDS011;16814;52.118;11.436;2024-02-23T00:46:52;1.73;;;0.53;;
29570;SDS011;16814;52.118;11.436;2024-02-23T00:49:18;1.77;;;0.53;;
29570;SDS011;16814;52.118;11.436;2024-02-23T00:51:43;2.97;;;0.60;;
29570;SDS011;16814;52.118;11.436;2024-02-23T00:54:09;1.42;;;0.45;;
29570;SDS011;16814;52.118;11.436;2024-02-23T00:56:34;4.40;;;0.50;;
29570;SDS011;16814;52.118;11.436;2024-02-23T00:59:00;2.67;;;0.63;;
29570;SDS011;16814;52.118;11.436;2024-02-23T01:01:25;1.58;;;0.55;;
29570;SDS011;16814;52.118;11.436;2024-02-23T01:03:54;2.38;;;0.47;;
29570;SDS011;16814;52.118;11.436;2024-02-23T01:06:19;2.80;;;0.63;;
29570;SDS011;16814;52.118;11.436;2024-02-23T01:08:45;1.98;;;0.52;;
29570;SDS011;16814;52.118;11.436;2024-02-23T01:11:10;3.27;;;0.50;;
29570;SDS011;16814;52.118;11.436;2024-02-23T01:13:36;1.20;;;0.60;;
29570;SDS011;16814;52.118;11.436;2024-02-23T01:16:02;2.90;;;0.50;;
29570;SDS011;16814;52.118;11.436;2024-02-23T01:18:27;2.72;;;0.52;;
29570;SDS011;16814;52.118;11.436;2024-02-23T01:20:53;2.67;;;0.60;;
29570;SDS011;16814;52.118;11.436;2024-02-23T01:23:18;1.70;;;0.50;;
29570;SDS011;16814;52.118;11.436;2024-02-23T01:25:44;1.50;;;0.60;;
29570;SDS011;16814;52.118;11.436;2024-02-23T01:28:09;1.65;;;0.50;;
29570;SDS011;16814;52.118;11.436;2024-02-23T01:30:35;2.53;;;0.50;;
29570;SDS011;16814;52.118;11.436;2024-02-23T01:33:01;2.17;;;0.67;;
29570;SDS011;16814;52.118;11.436;2024-02-23T01:35:27;3.83;;;0.57;;
29570;SDS011;16814;52.118;11.436;2024-02-23T01:37:54;1.83;;;0.50;;
29570;SDS011;16814;52.118;11.436;2024-02-23T01:40:19;2.60;;;0.67;;
29570;SDS011;16814;52.118;11.436;2024-02-23T01:42:45;3.97;;;0.80;;
29570;SDS011;16814;52.118;11.436;2024-02-23T01:45:10;4.50;;;0.60;;
29570;SDS011;16814;52.118;11.436;2024-02-23T01:47:36;1.60;;;0.40;;
29570;SDS011;16814;52.118;11.436;2024-02-23T01:50:01;2.95;;;0.75;;
29570;SDS011;16814;52.118;11.436;2024-02-23T01:52:28;2.45;;;0.43;;
29570;SDS011;16814;52.118;11.436;2024-02-23T01:54:54;1.23;;;0.40;;
29570;SDS011;16814;52.118;11.436;2024-02-23T01:57:21;1.57;;;0.50;;
29570;SDS011;16814;52.118;11.436;2024-02-23T01:59:47;2.90;;;0.77;;
29570;SDS011;16814;52.118;11.436;2024-02-23T02:02:13;2.17;;;0.50;;
29570;SDS011;16814;52.118;11.436;2024-02-23T02:04:39;2.10;;;0.63;;
29570;SDS011;16814;52.118;11.436;2024-02-23T02:07:05;3.33;;;0.60;;
29570;SDS011;16814;52.118;11.436;2024-02-23T02:09:30;2.30;;;0.60;;
29570;SDS011;16814;52.118;11.436;2024-02-23T02:11:56;4.97;;;0.50;;
29570;SDS011;16814;52.118;11.436;2024-02-23T02:14:21;2.10;;;0.60;;
29570;SDS011;16814;52.118;11.436;2024-02-23T02:16:47;1.13;;;0.50;;
29570;SDS011;16814;52.118;11.436;2024-02-23T02:19:13;2.33;;;0.50;;
29570;SDS011;16814;52.118;11.436;2024-02-23T02:21:39;3.05;;;0.40;;
29570;SDS011;16814;52.118;11.436;2024-02-23T02:24:06;2.33;;;0.40;;
29570;SDS011;16814;52.118;11.436;2024-02-23T02:26:32;2.08;;;0.50;;
29570;SDS011;16814;52.118;11.436;2024-02-23T02:28:57;2.30;;;0.60;;
29570;SDS011;16814;52.118;11.436;2024-02-23T02:31:23;2.28;;;0.50;;
29570;SDS011;16814;52.118;11.436;2024-02-23T02:33:48;2.77;;;0.53;;
29570;SDS011;16814;52.118;11.436;2024-02-23T02:36:14;2.28;;;0.60;;
29570;SDS011;16814;52.118;11.436;2024-02-23T02:38:40;5.63;;;0.60;;
29570;SDS011;16814;52.118;11.436;2024-02-23T02:41:05;2.80;;;0.80;;
29570;SDS011;16814;52.118;11.436;2024-02-23T02:43:31;0.55;;;0.30;;
29570;SDS011;16814;52.118;11.436;2024-02-23T02:45:57;3.55;;;0.55;;
29570;SDS011;16814;52.118;11.436;2024-02-23T02:48:23;3.70;;;0.70;;
29570;SDS011;16814;52.118;11.436;2024-02-23T02:50:49;3.70;;;0.60;;
29570;SDS011;16814;52.118;11.436;2024-02-23T02:53:16;1.05;;;0.45;;
29570;SDS011;16814;52.118;11.436;2024-02-23T02:55:42;1.90;;;0.50;;
29570;SDS011;16814;52.118;11.436;2024-02-23T02:58:08;4.57;;;0.53;;
29570;SDS011;16814;52.118;11.436;2024-02-23T03:00:34;2.08;;;0.40;;
29570;SDS011;16814;52.118;11.436;2024-02-23T03:02:59;2.88;;;0.55;;
29570;SDS011;16814;52.118;11.436;2024-02-23T03:05:25;2.60;;;0.40;;
29570;SDS011;16814;52.118;11.436;2024-02-23T03:07:51;1.17;;;0.40;;
29570;SDS011;16814;52.118;11.436;2024-02-23T03:10:16;1.33;;;0.43;;
29570;SDS011;16814;52.118;11.436;2024-02-23T03:12:42;1.45;;;0.45;;
29570;SDS011;16814;52.118;11.436;2024-02-23T03:15:08;2.53;;;0.50;;
29570;SDS011;16814;52.118;11.436;2024-02-23T03:17:35;2.60;;;0.40;;
29570;SDS011;16814;52.118;11.436;2024-02-23T03:20:00;4.25;;;0.40;;
29570;SDS011;16814;52.118;11.436;2024-02-23T03:22:26;0.60;;;0.30;;
29570;SDS011;16814;52.118;11.436;2024-02-23T03:24:52;1.80;;;0.47;;
29570;SDS011;16814;52.118;11.436;2024-02-23T03:27:17;3.13;;;0.40;;
29570;SDS011;16814;52.118;11.436;2024-02-23T03:29:44;0.68;;;0.30;;
29570;SDS011;16814;52.118;11.436;2024-02-23T03:32:09;0.70;;;0.40;;
29570;SDS011;16814;52.118;11.436;2024-02-23T03:34:35;1.50;;;0.37;;
29570;SDS011;16814;52.118;11.436;2024-02-23T03:37:01;3.35;;;0.35;;
29570;SDS011;16814;52.118;11.436;2024-02-23T03:39:28;2.30;;;0.40;;
29570;SDS011;16814;52.118;11.436;2024-02-23T03:41:53;1.30;;;0.30;;
29570;SDS011;16814;52.118;11.436;2024-02-23T03:44:19;1.92;;;0.32;;
29570;SDS011;16814;52.118;11.436;2024-02-23T03:46:44;0.47;;;0.20;;
29570;SDS011;16814;52.118;11.436;2024-02-23T03:49:10;0.20;;;0.20;;
29570;SDS011;16814;52.118;11.436;2024-02-23T03:51:37;0.80;;;0.30;;
29570;SDS011;16814;52.118;11.436;2024-02-23T03:54:04;0.82;;;0.40;;
29570;SDS011;16814;52.118;11.436;2024-02-23T03:56:37;1.00;;;0.40;;
29570;SDS011;16814;52.118;11.436;2024-02-23T03:59:03;1.92;;;0.30;;
29570;SDS011;16814;52.118;11.436;2024-02-23T04:01:29;1.83;;;0.30;;
29570;SDS011;16814;52.118;11.436;2024-02-23T04:03:55;0.90;;;0.30;;
29570;SDS011;16814;52.118;11.436;2024-02-23T04:06:20;0.40;;;0.20;;
29570;SDS011;16814;52.118;11.436;2024-02-23T04:08:46;0.40;;;0.40;;
29570;SDS011;16814;52.118;11.436;2024-02-23T04:11:12;2.53;;;0.43;;
29570;SDS011;16814;52.118;11.436;2024-02-23T04:13:38;3.63;;;0.40;;
29570;SDS011;16814;52.118;11.436;2024-02-23T04:16:04;1.00;;;0.50;;
29570;SDS011;16814;52.118;11.436;2024-02-23T04:18:29;0.33;;;0.30;;
29570;SDS011;16814;52.118;11.436;2024-02-23T04:20:56;1.02;;;0.30;;
29570;SDS011;16814;52.118;11.436;2024-02-23T04:23:21;0.47;;;0.40;;
29570;SDS011;16814;52.118;11.436;2024-02-23T04:25:47;0.70;;;0.50;;
29570;SDS011;16814;52.118;11.436;2024-02-23T04:28:12;5.00;;;0.60;;
29570;SDS011;16814;52.118;11.436;2024-02-23T04:30:38;0.60;;;0.40;;
29570;SDS011;16814;52.118;11.436;2024-02-23T04:33:07;1.27;;;0.57;;
29570;SDS011;16814;52.118;11.436;2024-02-23T04:35:32;2.13;;;0.50;;
29570;SDS011;16814;52.118;11.436;2024-02-23T04:37:58;0.52;;;0.50;;
29570;SDS011;16814;52.118;11.436;2024-02-23T04:40:23;1.50;;;0.50;;
29570;SDS011;16814;52.118;11.436;2024-02-23T04:42:49;0.33;;;0.33;;
29570;SDS011;16814;52.118;11.436;2024-02-23T04:45:14;0.40;;;0.40;;
29570;SDS011;16814;52.118;11.436;2024-02-23T04:47:40;0.53;;;0.53;;
29570;SDS011;16814;52.118;11.436;2024-02-23T04:50:06;0.60;;;0.47;;
29570;SDS011;16814;52.118;11.436;2024-02-23T04:52:32;0.70;;;0.60;;
29570;SDS011;16814;52.118;11.436;2024-02-23T04:54:57;0.40;;;0.40;;
29570;SDS011;16814;52.118;11.436;2024-02-23T04:57:23;0.80;;;0.50;;
29570;SDS011;16814;52.118;11.436;2024-02-23T04:59:48;1.02;;;0.60;;
29570;SDS011;16814;52.118;11.436;2024-02-23T05:02:14;0.60;;;0.40;;
29570;SDS011;16814;52.118;11.436;2024-02-23T05:04:39;0.63;;;0.50;;
29570;SDS011;16814;52.118;11.436;2024-02-23T05:07:05;0.80;;;0.47;;
29570;SDS011;16814;52.118;11.436;2024-02-23T05:09:30;1.17;;;0.60;;
29570;SDS011;16814;52.118;11.436;2024-02-23T05:11:57;1.10;;;0.50;;
29570;SDS011;16814;52.118;11.436;2024-02-23T05:14:22;2.90;;;0.50;;
29570;SDS011;16814;52.118;11.436;2024-02-23T05:16:48;0.90;;;0.50;;
29570;SDS011;16814;52.118;11.436;2024-02-23T05:19:13;1.10;;;0.50;;
29570;SDS011;16814;52.118;11.436;2024-02-23T05:21:39;0.47;;;0.40;;
29570;SDS011;16814;52.118;11.436;2024-02-23T05:24:04;0.60;;;0.40;;
29570;SDS011;16814;52.118;11.436;2024-02-23T05:26:31;0.50;;;0.40;;
29570;SDS011;16814;52.118;11.436;2024-02-23T05:28:56;0.50;;;0.32;;
29570;SDS011;16814;52.118;11.436;2024-02-23T05:31:25;1.53;;;0.60;;
29570;SDS011;16814;52.118;11.436;2024-02-23T05:34:17;0.50;;;0.40;;
29570;SDS011;16814;52.118;11.436;2024-02-23T05:36:44;0.50;;;0.50;;
29570;SDS011;16814;52.118;11.436;2024-02-23T05:39:11;1.63;;;0.70;;
29570;SDS011;16814;52.118;11.436;2024-02-23T05:41:38;0.60;;;0.40;;
29570;SDS011;16814;52.118;11.436;2024-02-23T05:44:04;0.50;;;0.47;;
29570;SDS011;16814;52.118;11.436;2024-02-23T05:46:34;0.85;;;0.50;;
29570;SDS011;16814;52.118;11.436;2024-02-23T05:49:00;2.70;;;0.40;;
29570;SDS011;16814;52.118;11.436;2024-02-23T05:51:27;1.83;;;0.30;;
29570;SDS011;16814;52.118;11.436;2024-02-23T05:53:54;1.05;;;0.47;;
29570;SDS011;16814;52.118;11.436;2024-02-23T05:56:19;3.08;;;0.60;;
29570;SDS011;16814;52.118;11.436;2024-02-23T05:58:45;0.90;;;0.63;;
29570;SDS011;16814;52.118;11.436;2024-02-23T06:01:11;1.00;;;0.50;;
29570;SDS011;16814;52.118;11.436;2024-02-23T06:03:36;0.87;;;0.40;;
29570;SDS011;16814;52.118;11.436;2024-02-23T06:06:02;2.43;;;0.50;;
29570;SDS011;16814;52.118;11.436;2024-02-23T06:08:33;2.13;;;0.68;;
29570;SDS011;16814;52.118;11.436;2024-02-23T06:10:58;2.00;;;0.60;;
29570;SDS011;16814;52.118;11.436;2024-02-23T06:13:25;1.23;;;0.50;;
29570;SDS011;16814;52.118;11.436;2024-02-23T06:15:50;4.97;;;0.82;;
29570;SDS011;16814;52.118;11.436;2024-02-23T06:18:16;3.50;;;0.60;;
29570;SDS011;16814;52.118;11.436;2024-02-23T06:20:41;5.10;;;0.68;;
29570;SDS011;16814;52.118;11.436;2024-02-23T06:23:07;2.60;;;0.60;;
29570;SDS011;16814;52.118;11.436;2024-02-23T06:25:32;1.55;;;0.40;;
29570;SDS011;16814;52.118;11.436;2024-02-23T06:27:58;1.80;;;0.50;;
29570;SDS011;16814;52.118;11.436;2024-02-23T06:30:24;4.53;;;0.70;;
29570;SDS011;16814;52.118;11.436;2024-02-23T06:32:49;5.80;;;0.82;;
29570;SDS011;16814;52.118;11.436;2024-02-23T06:35:15;4.53;;;0.90;;
29570;SDS011;16814;52.118;11.436;2024-02-23T06:37:40;3.80;;;0.75;;
29570;SDS011;16814;52.118;11.436;2024-02-23T06:40:06;5.80;;;0.63;;
29570;SDS011;16814;52.118;11.436;2024-02-23T06:42:32;4.72;;;0.77;;
29570;SDS011;16814;52.118;11.436;2024-02-23T06:44:58;5.78;;;0.70;;
29570;SDS011;16814;52.118;11.436;2024-02-23T06:47:24;4.37;;;0.80;;
29570;SDS011;16814;52.118;11.436;2024-02-23T06:49:50;6.07;;;0.70;;
29570;SDS011;16814;52.118;11.436;2024-02-23T06:52:15;5.70;;;0.80;;
29570;SDS011;16814;52.118;11.436;2024-02-23T06:54:42;5.70;;;0.80;;
29570;SDS011;16814;52.118;11.436;2024-02-23T06:57:07;8.10;;;1.10;;
29570;SDS011;16814;52.118;11.436;2024-02-23T06:59:33;5.22;;;0.90;;
29570;SDS011;16814;52.118;11.436;2024-02-23T07:01:58;8.45;;;0.90;;
29570;SDS011;16814;52.118;11.436;2024-02-23T07:04:24;6.50;;;1.40;;
29570;SDS011;16814;52.118;11.436;2024-02-23T07:06:50;5.67;;;1.00;;
29570;SDS011;16814;52.118;11.436;2024-02-23T07:09:16;8.30;;;0.93;;
29570;SDS011;16814;52.118;11.436;2024-02-23T07:11:41;5.83;;;0.93;;
29570;SDS011;16814;52.118;11.436;2024-02-23T07:14:08;9.73;;;1.10;;
29570;SDS011;16814;52.118;11.436;2024-02-23T07:16:38;8.15;;;1.10;;
29570;SDS011;16814;52.118;11.436;2024-02-23T07:19:07;3.50;;;0.93;;
29570;SDS011;16814;52.118;11.436;2024-02-23T07:21:33;2.83;;;0.90;;
29570;SDS011;16814;52.118;11.436;2024-02-23T07:23:59;4.03;;;1.00;;
29570;SDS011;16814;52.118;11.436;2024-02-23T07:26:25;5.22;;;0.95;;
29570;SDS011;16814;52.118;11.436;2024-02-23T07:28:53;11.50;;;1.20;;
29570;SDS011;16814;52.118;11.436;2024-02-23T07:31:19;5.70;;;1.17;;
29570;SDS011;16814;52.118;11.436;2024-02-23T07:33:44;1.90;;;0.60;;
29570;SDS011;16814;52.118;11.436;2024-02-23T07:36:13;2.73;;;0.80;;
29570;SDS011;16814;52.118;11.436;2024-02-23T07:38:39;3.57;;;0.80;;
29570;SDS011;16814;52.118;11.436;2024-02-23T07:41:05;3.88;;;0.85;;
29570;SDS011;16814;52.118;11.436;2024-02-23T07:43:30;3.93;;;0.60;;
29570;SDS011;16814;52.118;11.436;2024-02-23T07:45:56;3.50;;;0.60;;
29570;SDS011;16814;52.118;11.436;2024-02-23T07:48:21;2.90;;;0.90;;
29570;SDS011;16814;52.118;11.436;2024-02-23T07:50:47;3.93;;;0.70;;
29570;SDS011;16814;52.118;11.436;2024-02-23T07:53:13;2.30;;;0.68;;
29570;SDS011;16814;52.118;11.436;2024-02-23T07:55:38;2.40;;;0.70;;
29570;SDS011;16814;52.118;11.436;2024-02-23T07:58:04;3.57;;;0.70;;
29570;SDS011;16814;52.118;11.436;2024-02-23T08:00:29;5.65;;;0.80;;
29570;SDS011;16814;52.118;11.436;2024-02-23T08:02:55;3.53;;;0.90;;
29570;SDS011;16814;52.118;11.436;2024-02-23T08:05:25;4.95;;;0.63;;
29570;SDS011;16814;52.118;11.436;2024-02-23T08:07:50;6.37;;;0.90;;
29570;SDS011;16814;52.118;11.436;2024-02-23T08:10:16;5.05;;;0.70;;
29570;SDS011;16814;52.118;11.436;2024-02-23T08:12:41;2.87;;;0.70;;
29570;SDS011;16814;52.118;11.436;2024-02-23T08:15:07;2.42;;;1.00;;
29570;SDS011;16814;52.118;11.436;2024-02-23T08:17:33;5.23;;;1.13;;
29570;SDS011;16814;52.118;11.436;2024-02-23T08:19:58;2.90;;;0.75;;
29570;SDS011;16814;52.118;11.436;2024-02-23T08:22:24;5.97;;;0.87;;
29570;SDS011;16814;52.118;11.436;2024-02-23T08:24:49;6.68;;;0.95;;
29570;SDS011;16814;52.118;11.436;2024-02-23T08:27:15;4.77;;;0.80;;
29570;SDS011;16814;52.118;11.436;2024-02-23T08:29:41;7.07;;;0.70;;
29570;SDS011;16814;52.118;11.436;2024-02-23T08:32:06;4.80;;;0.82;;
29570;SDS011;16814;52.118;11.436;2024-02-23T08:34:32;5.47;;;1.00;;
29570;SDS011;16814;52.118;11.436;2024-02-23T08:36:59;8.18;;;0.80;;
29570;SDS011;16814;52.118;11.436;2024-02-23T08:39:25;7.50;;;0.93;;
29570;SDS011;16814;52.118;11.436;2024-02-23T08:41:51;4.57;;;0.90;;
29570;SDS011;16814;52.118;11.436;2024-02-23T08:44:17;2.88;;;0.82;;
29570;SDS011;16814;52.118;11.436;2024-02-23T08:46:43;3.13;;;1.00;;
29570;SDS011;16814;52.118;11.436;2024-02-23T08:49:08;2.90;;;0.60;;
29570;SDS011;16814;52.118;11.436;2024-02-23T08:51:34;2.23;;;0.60;;
29570;SDS011;16814;52.118;11.436;2024-02-23T08:53:59;3.38;;;0.90;;
29570;SDS011;16814;52.118;11.436;2024-02-23T08:56:29;7.13;;;0.80;;
29570;SDS011;16814;52.118;11.436;2024-02-23T08:58:56;3.92;;;0.77;;
29570;SDS011;16814;52.118;11.436;2024-02-23T09:01:23;3.90;;;0.65;;
29570;SDS011;16814;52.118;11.436;2024-02-23T09:03:48;3.80;;;0.70;;
29570;SDS011;16814;52.118;11.436;2024-02-23T09:06:14;7.10;;;0.70;;
29570;SDS011;16814;52.118;11.436;2024-02-23T09:08:40;3.90;;;0.70;;
29570;SDS011;16814;52.118;11.436;2024-02-23T09:11:06;7.13;;;1.07;;
29570;SDS011;16814;52.118;11.436;2024-02-23T09:13:31;4.03;;;0.90;;
29570;SDS011;16814;52.118;11.436;2024-02-23T09:15:57;11.23;;;1.13;;
29570;SDS011;16814;52.118;11.436;2024-02-23T09:18:22;11.02;;;1.20;;
29570;SDS011;16814;52.118;11.436;2024-02-23T09:20:48;7.27;;;1.07;;
29570;SDS011;16814;52.118;11.436;2024-02-23T09:23:13;9.60;;;1.10;;
29570;SDS011;16814;52.118;11.436;2024-02-23T09:25:39;3.03;;;0.60;;
29570;SDS011;16814;52.118;11.436;2024-02-23T09:28:05;4.00;;;0.90;;
29570;SDS011;16814;52.118;11.436;2024-02-23T09:30:30;4.13;;;0.65;;
29570;SDS011;16814;52.118;11.436;2024-02-23T09:32:56;6.83;;;0.90;;
29570;SDS011;16814;52.118;11.436;2024-02-23T09:35:21;2.97;;;0.65;;
29570;SDS011;16814;52.118;11.436;2024-02-23T09:37:47;3.97;;;0.80;;
29570;SDS011;16814;52.118;11.436;2024-02-23T09:40:13;3.47;;;0.77;;
29570;SDS011;16814;52.118;11.436;2024-02-23T09:42:40;3.38;;;0.70;;
29570;SDS011;16814;52.118;11.436;2024-02-23T09:45:06;3.35;;;0.50;;
29570;SDS011;16814;52.118;11.436;2024-02-23T09:47:33;5.00;;;0.60;;
29570;SDS011;16814;52.118;11.436;2024-02-23T09:49:59;3.00;;;0.50;;
29570;SDS011;16814;52.118;11.436;2024-02-23T09:52:28;2.47;;;0.63;;
29570;SDS011;16814;52.118;11.436;2024-02-23T09:54:54;4.20;;;0.75;;
29570;SDS011;16814;52.118;11.436;2024-02-23T09:57:21;3.75;;;0.70;;
29570;SDS011;16814;52.118;11.436;2024-02-23T09:59:48;4.18;;;0.70;;
29570;SDS011;16814;52.118;11.436;2024-02-23T10:02:17;4.95;;;0.50;;
29570;SDS011;16814;52.118;11.436;2024-02-23T10:04:43;4.13;;;0.90;;
29570;SDS011;16814;52.118;11.436;2024-02-23T10:07:09;1.77;;;0.47;;
29570;SDS011;16814;52.118;11.436;2024-02-23T10:09:35;4.18;;;0.60;;
29570;SDS011;16814;52.118;11.436;2024-02-23T10:12:04;5.93;;;0.80;;
29570;SDS011;16814;52.118;11.436;2024-02-23T10:14:29;3.83;;;0.60;;
29570;SDS011;16814;52.118;11.436;2024-02-23T10:16:55;2.43;;;0.70;;
29570;SDS011;16814;52.118;11.436;2024-02-23T10:19:21;1.88;;;0.60;;
29570;SDS011;16814;52.118;11.436;2024-02-23T10:21:47;4.17;;;0.60;;
29570;SDS011;16814;52.118;11.436;2024-02-23T10:24:15;6.57;;;0.77;;
29570;SDS011;16814;52.118;11.436;2024-02-23T10:26:42;5.65;;;0.88;;
29570;SDS011;16814;52.118;11.436;2024-02-23T10:29:07;20.70;;;1.60;;
29570;SDS011;16814;52.118;11.436;2024-02-23T10:31:36;12.67;;;1.10;;
29570;SDS011;16814;52.118;11.436;2024-02-23T10:34:04;4.95;;;0.70;;
29570;SDS011;16814;52.118;11.436;2024-02-23T10:36:42;6.28;;;0.70;;
29570;SDS011;16814;52.118;11.436;2024-02-23T10:39:08;2.70;;;0.60;;
29570;SDS011;16814;52.118;11.436;2024-02-23T10:41:35;4.95;;;0.70;;
29570;SDS011;16814;52.118;11.436;2024-02-23T10:44:02;4.97;;;0.88;;
29570;SDS011;16814;52.118;11.436;2024-02-23T10:46:30;3.60;;;0.77;;
29570;SDS011;16814;52.118;11.436;2024-02-23T10:48:56;4.23;;;0.83;;
29570;SDS011;16814;52.118;11.436;2024-02-23T10:51:24;5.53;;;1.00;;
29570;SDS011;16814;52.118;11.436;2024-02-23T10:53:50;1.92;;;0.70;;
29570;SDS011;16814;52.118;11.436;2024-02-23T10:56:17;2.00;;;0.60;;
29570;SDS011;16814;52.118;11.436;2024-02-23T10:58:44;3.00;;;0.80;;
29570;SDS011;16814;52.118;11.436;2024-02-23T11:01:10;3.80;;;0.90;;
29570;SDS011;16814;52.118;11.436;2024-02-23T11:03:38;2.30;;;0.70;;
29570;SDS011;16814;52.118;11.436;2024-02-23T11:06:07;5.43;;;0.75;;
29570;SDS011;16814;52.118;11.436;2024-02-23T11:08:33;7.40;;;0.73;;
29570;SDS011;16814;52.118;11.436;2024-02-23T11:11:07;5.25;;;1.10;;
29570;SDS011;16814;52.118;11.436;2024-02-23T11:13:34;3.90;;;0.90;;
29570;SDS011;16814;52.118;11.436;2024-02-23T11:16:03;3.80;;;0.70;;
29570;SDS011;16814;52.118;11.436;2024-02-23T11:18:29;4.32;;;0.70;;
29570;SDS011;16814;52.118;11.436;2024-02-23T11:21:00;1.80;;;0.60;;
29570;SDS011;16814;52.118;11.436;2024-02-23T11:23:42;6.60;;;1.00;;
29570;SDS011;16814;52.118;11.436;2024-02-23T11:26:09;5.10;;;0.80;;
29570;SDS011;16814;52.118;11.436;2024-02-23T11:28:48;4.32;;;1.10;;
29570;SDS011;16814;52.118;11.436;2024-02-23T11:31:19;7.57;;;1.20;;
29570;SDS011;16814;52.118;11.436;2024-02-23T11:33:48;3.85;;;1.02;;
29570;SDS011;16814;52.118;11.436;2024-02-23T11:36:21;3.13;;;0.73;;
29570;SDS011;16814;52.118;11.436;2024-02-23T11:38:47;7.07;;;0.88;;
29570;SDS011;16814;52.118;11.436;2024-02-23T11:41:13;4.70;;;0.70;;
29570;SDS011;16814;52.118;11.436;2024-02-23T11:43:39;3.95;;;0.60;;
29570;SDS011;16814;52.118;11.436;2024-02-23T11:46:07;2.38;;;0.70;;
29570;SDS011;16814;52.118;11.436;2024-02-23T11:48:32;4.13;;;0.70;;
29570;SDS011;16814;52.118;11.436;2024-02-23T11:50:58;3.90;;;0.93;;
29570;SDS011;16814;52.118;11.436;2024-02-23T11:53:23;2.70;;;0.70;;
29570;SDS011;16814;52.118;11.436;2024-02-23T11:55:50;5.72;;;1.10;;
29570;SDS011;16814;52.118;11.436;2024-02-23T11:58:17;5.72;;;0.80;;
29570;SDS011;16814;52.118;11.436;2024-02-23T12:00:43;3.33;;;0.80;;
29570;SDS011;16814;52.118;11.436;2024-02-23T12:03:08;3.63;;;0.70;;
29570;SDS011;16814;52.118;11.436;2024-02-23T12:05:34;4.33;;;0.60;;
29570;SDS011;16814;52.118;11.436;2024-02-23T12:08:00;8.48;;;1.15;;
29570;SDS011;16814;52.118;11.436;2024-02-23T12:10:26;3.10;;;0.90;;
29570;SDS011;16814;52.118;11.436;2024-02-23T12:12:53;3.93;;;0.70;;
29570;SDS011;16814;52.118;11.436;2024-02-23T12:15:19;3.72;;;0.93;;
29570;SDS011;16814;52.118;11.436;2024-02-23T12:17:48;2.70;;;0.80;;
29570;SDS011;16814;52.118;11.436;2024-02-23T12:20:14;3.78;;;0.80;;
29570;SDS011;16814;52.118;11.436;2024-02-23T12:22:40;3.83;;;0.83;;
29570;SDS011;16814;52.118;11.436;2024-02-23T12:25:06;5.57;;;0.98;;
29570;SDS011;16814;52.118;11.436;2024-02-23T12:27:32;4.05;;;0.80;;
29570;SDS011;16814;52.118;11.436;2024-02-23T12:29:58;3.50;;;0.83;;
29570;SDS011;16814;52.118;11.436;2024-02-23T12:32:24;5.17;;;0.70;;
29570;SDS011;16814;52.118;11.436;2024-02-23T12:34:50;6.15;;;1.00;;
29570;SDS011;16814;52.118;11.436;2024-02-23T12:37:20;6.20;;;0.93;;
29570;SDS011;16814;52.118;11.436;2024-02-23T12:39:47;2.05;;;0.50;;
29570;SDS011;16814;52.118;11.436;2024-02-23T12:42:13;2.30;;;0.70;;
29570;SDS011;16814;52.118;11.436;2024-02-23T12:44:38;3.75;;;0.82;;
29570;SDS011;16814;52.118;11.436;2024-02-23T12:47:04;3.92;;;0.90;;
29570;SDS011;16814;52.118;11.436;2024-02-23T12:49:30;5.17;;;1.10;;
29570;SDS011;16814;52.118;11.436;2024-02-23T12:51:56;1.97;;;0.70;;
29570;SDS011;16814;52.118;11.436;2024-02-23T12:54:22;6.03;;;1.30;;
29570;SDS011;16814;52.118;11.436;2024-02-23T12:56:47;3.77;;;0.90;;
29570;SDS011;16814;52.118;11.436;2024-02-23T12:59:13;3.90;;;0.83;;
29570;SDS011;16814;52.118;11.436;2024-02-23T13:01:38;2.92;;;0.80;;
29570;SDS011;16814;52.118;11.436;2024-02-23T13:04:04;5.87;;;1.03;;
29570;SDS011;16814;52.118;11.436;2024-02-23T13:06:35;6.15;;;0.75;;
29570;SDS011;16814;52.118;11.436;2024-02-23T13:09:04;3.70;;;0.70;;
29570;SDS011;16814;52.118;11.436;2024-02-23T13:11:31;6.37;;;1.10;;
29570;SDS011;16814;52.118;11.436;2024-02-23T13:13:56;3.70;;;0.90;;
29570;SDS011;16814;52.118;11.436;2024-02-23T13:16:22;4.35;;;1.17;;
29570;SDS011;16814;52.118;11.436;2024-02-23T13:18:47;7.20;;;1.20;;
29570;SDS011;16814;52.118;11.436;2024-02-23T13:21:13;4.43;;;0.90;;
29570;SDS011;16814;52.118;11.436;2024-02-23T13:23:39;4.50;;;0.90;;
29570;SDS011;16814;52.118;11.436;2024-02-23T13:26:06;3.42;;;0.75;;
29570;SDS011;16814;52.118;11.436;2024-02-23T13:28:32;6.05;;;0.88;;
29570;SDS011;16814;52.118;11.436;2024-02-23T13:30:58;4.10;;;0.90;;
29570;SDS011;16814;52.118;11.436;2024-02-23T13:33:23;4.40;;;0.83;;
29570;SDS011;16814;52.118;11.436;2024-02-23T13:35:49;3.63;;;0.98;;
29570;SDS011;16814;52.118;11.436;2024-02-23T13:38:14;5.40;;;0.87;;
29570;SDS011;16814;52.118;11.436;2024-02-23T13:40:40;2.92;;;0.85;;
29570;SDS011;16814;52.118;11.436;2024-02-23T13:43:05;7.78;;;1.20;;
29570;SDS011;16814;52.118;11.436;2024-02-23T13:45:31;5.23;;;1.07;;
29570;SDS011;16814;52.118;11.436;2024-02-23T13:47:58;6.40;;;1.40;;
29570;SDS011;16814;52.118;11.436;2024-02-23T13:50:25;4.88;;;1.00;;
29570;SDS011;16814;52.118;11.436;2024-02-23T13:52:51;4.40;;;0.90;;
29570;SDS011;16814;52.118;11.436;2024-02-23T13:55:17;5.15;;;0.93;;
29570;SDS011;16814;52.118;11.436;2024-02-23T13:57:42;5.47;;;1.10;;
29570;SDS011;16814;52.118;11.436;2024-02-23T14:00:08;3.67;;;0.90;;
29570;SDS011;16814;52.118;11.436;2024-02-23T14:02:37;2.40;;;1.00;;
29570;SDS011;16814;52.118;11.436;2024-02-23T14:05:05;7.72;;;1.15;;
29570;SDS011;16814;52.118;11.436;2024-02-23T14:07:31;4.87;;;1.50;;
29570;SDS011;16814;52.118;11.436;2024-02-23T14:09:57;6.07;;;2.05;;
29570;SDS011;16814;52.118;11.436;2024-02-23T14:12:23;7.75;;;2.10;;
29570;SDS011;16814;52.118;11.436;2024-02-23T14:14:49;5.50;;;1.77;;
29570;SDS011;16814;52.118;11.436;2024-02-23T14:17:14;4.65;;;1.00;;
29570;SDS011;16814;52.118;11.436;2024-02-23T14:19:40;8.10;;;1.20;;
29570;SDS011;16814;52.118;11.436;2024-02-23T14:22:05;6.70;;;2.00;;
29570;SDS011;16814;52.118;11.436;2024-02-23T14:24:31;8.05;;;3.28;;
29570;SDS011;16814;52.118;11.436;2024-02-23T14:26:57;6.40;;;1.30;;